createdAt,value
2022-08-14T00:04:41.898Z,24.80
2022-08-14T00:10:01.895Z,24.77
2022-08-14T00:15:08.200Z,28.70
2022-08-14T00:20:09.966Z,30.23
2022-08-14T00:25:12.043Z,25.73
2022-08-14T00:30:17.268Z,23.40
2022-08-14T00:35:18.963Z,26.08
2022-08-14T00:40:33.369Z,24.02
2022-08-14T00:45:37.253Z,27.15
2022-08-14T00:50:38.982Z,26.45
2022-08-14T00:55:40.582Z,26.30
2022-08-14T01:00:51.421Z,26.98
2022-08-14T01:06:00.581Z,24.40
2022-08-14T01:11:02.739Z,24.38
2022-08-14T01:16:04.351Z,24.38
2022-08-14T01:21:09.041Z,22.88
2022-08-14T01:26:12.833Z,25.42
2022-08-14T01:31:25.162Z,24.90
2022-08-14T01:36:32.159Z,20.05
2022-08-14T01:41:37.362Z,25.80
2022-08-14T01:46:39.115Z,22.48
2022-08-14T01:51:41.058Z,26.20
2022-08-14T01:56:42.939Z,22.30
2022-08-14T02:01:51.381Z,23.27
2022-08-14T02:06:59.923Z,24.02
2022-08-14T02:12:02.775Z,22.10
2022-08-14T02:17:04.462Z,24.83
2022-08-14T02:22:06.140Z,23.20
2022-08-14T02:28:21.990Z,21.33
2022-08-14T02:32:36.791Z,22.75
2022-08-14T02:37:48.334Z,21.67
2022-08-14T02:42:54.780Z,21.48
2022-08-14T02:47:59.070Z,20.35
2022-08-14T02:53:03.671Z,22.08
2022-08-14T02:58:05.923Z,20.95
2022-08-14T03:03:08.289Z,20.15
2022-08-14T03:08:11.290Z,19.48
2022-08-14T03:13:19.065Z,20.17
2022-08-14T03:18:21.510Z,22.48
2022-08-14T03:23:33.913Z,22.25
2022-08-14T03:28:39.361Z,22.23
2022-08-14T03:33:41.137Z,21.55
2022-08-14T03:39:12.833Z,22.13
2022-08-14T03:45:18.969Z,23.08
2022-08-14T03:49:29.198Z,23.15
2022-08-14T03:54:31.760Z,23.02
2022-08-14T03:59:33.514Z,24.55
2022-08-14T04:04:37.147Z,30.42
2022-08-14T04:09:38.898Z,31.30
2022-08-14T04:14:40.646Z,35.50
2022-08-14T04:19:43.977Z,34.03
2022-08-14T04:24:46.055Z,38.45
2022-08-14T04:29:51.229Z,35.88
2022-08-14T04:34:53.308Z,49.92
2022-08-14T04:39:57.734Z,65.10
2022-08-14T04:45:01.299Z,60.10
2022-08-14T04:50:03.492Z,69.40
2022-08-14T04:55:05.959Z,71.10
2022-08-14T05:00:07.749Z,63.63
2022-08-14T05:05:18.250Z,62.17
2022-08-14T05:10:24.726Z,54.25
2022-08-14T05:15:27.094Z,57.13
2022-08-14T05:21:57.918Z,58.92
2022-08-14T05:25:50.460Z,62.78
2022-08-14T05:30:54.305Z,50.20
2022-08-14T05:35:56.064Z,54.28
2022-08-14T05:40:57.641Z,40.85
2022-08-14T05:45:59.348Z,35.55
2022-08-14T05:51:01.098Z,32.88
2022-08-14T05:56:03.487Z,35.60
2022-08-14T06:01:05.232Z,27.25
2022-08-14T06:06:07.708Z,24.13
2022-08-14T06:11:09.349Z,26.98
2022-08-14T06:16:11.111Z,25.75
2022-08-14T06:21:13.693Z,24.52
2022-08-14T06:26:15.369Z,26.75
2022-08-14T06:31:17.943Z,21.27
2022-08-14T06:36:22.154Z,18.33
2022-08-14T06:41:56.925Z,20.55
2022-08-14T06:46:49.176Z,21.50
2022-08-14T06:51:51.789Z,20.75
2022-08-14T06:56:57.167Z,21.08
2022-08-14T07:01:58.868Z,20.05
2022-08-14T07:07:00.614Z,22.33
2022-08-14T07:12:02.365Z,24.08
2022-08-14T07:17:04.122Z,25.67
2022-08-14T07:22:06.186Z,23.08
2022-08-14T07:27:19.858Z,24.83
2022-08-14T07:32:34.182Z,21.83
2022-08-14T07:37:45.038Z,23.67
2022-08-14T07:42:49.455Z,23.92
2022-08-14T07:47:52.375Z,22.13
2022-08-14T07:52:55.074Z,21.50
2022-08-14T07:57:57.589Z,19.17
2022-08-14T08:03:00.384Z,21.88
2022-08-14T08:08:02.299Z,22.15
2022-08-14T08:13:04.028Z,26.55
2022-08-14T08:18:06.542Z,25.65
2022-08-14T08:23:08.297Z,33.92
2022-08-14T08:28:25.194Z,30.13
2022-08-14T08:33:31.771Z,30.30
2022-08-14T08:39:15.728Z,34.85
2022-08-14T08:43:55.810Z,28.30
2022-08-14T08:53:58.260Z,26.65
2022-08-14T08:59:00.063Z,23.00
2022-08-14T09:04:03.386Z,20.30
2022-08-14T09:09:09.253Z,19.67
2022-08-14T09:14:10.862Z,17.85
2022-08-14T09:19:12.751Z,15.98
2022-08-14T09:24:28.183Z,15.25
2022-08-14T09:29:34.836Z,14.52
2022-08-14T09:34:37.125Z,14.52
2022-08-14T09:39:40.475Z,13.35
2022-08-14T09:44:42.928Z,11.20
2022-08-14T09:49:53.088Z,10.48
2022-08-14T09:54:55.112Z,10.63
2022-08-14T09:59:58.870Z,10.50
2022-08-14T10:05:00.779Z,9.85
2022-08-14T10:10:02.593Z,9.93
2022-08-14T10:15:24.099Z,10.70
2022-08-14T10:20:41.095Z,12.25
2022-08-14T10:25:44.413Z,10.52
2022-08-14T10:30:46.207Z,11.55
2022-08-14T10:35:48.436Z,11.57
2022-08-14T10:40:52.201Z,13.30
2022-08-14T10:46:59.283Z,15.05
2022-08-14T10:51:22.417Z,17.45
2022-08-14T10:56:33.801Z,1.15
2022-08-14T11:01:41.089Z,0.82
2022-08-14T11:06:43.614Z,1.23
2022-08-14T11:11:46.598Z,0.98
2022-08-14T11:16:53.220Z,1.27
2022-08-14T11:21:56.044Z,1.05
2022-08-14T11:26:58.190Z,1.55
2022-08-14T11:31:59.747Z,0.73
2022-08-14T11:37:09.756Z,0.90
2022-08-14T11:42:56.857Z,0.70
2022-08-14T11:48:10.781Z,0.45
2022-08-14T11:53:04.619Z,0.90
2022-08-14T11:58:06.357Z,0.95
2022-08-14T12:03:11.095Z,0.90
2022-08-14T12:08:15.811Z,1.67
2022-08-14T12:13:27.278Z,0.75
2022-08-14T12:18:29.089Z,0.73
2022-08-14T12:23:31.098Z,1.73
2022-08-14T12:28:33.929Z,0.82
2022-08-14T12:33:54.978Z,0.80
2022-08-14T12:38:56.535Z,1.10
2022-08-14T12:43:59.692Z,0.70
2022-08-14T12:49:02.454Z,0.75
2022-08-14T12:54:04.274Z,1.40
2022-08-14T12:59:11.936Z,0.28
2022-08-14T13:04:13.634Z,1.05
2022-08-14T13:09:16.213Z,1.60
2022-08-14T13:14:17.980Z,0.60
2022-08-14T13:19:20.116Z,4.13
2022-08-14T13:24:21.912Z,18.30
2022-08-14T13:29:23.667Z,20.58
2022-08-14T13:34:25.325Z,20.02
2022-08-14T13:39:27.221Z,18.75
2022-08-14T13:44:28.924Z,18.40
2022-08-14T13:49:31.032Z,21.77
2022-08-14T13:54:33.378Z,20.20
2022-08-14T13:59:37.281Z,21.88
2022-08-14T14:04:39.999Z,20.92
2022-08-14T14:09:52.560Z,20.48
2022-08-14T14:14:55.122Z,21.98
2022-08-14T14:19:56.674Z,21.20
2022-08-14T14:24:58.321Z,20.67
2022-08-14T14:30:00.037Z,22.65
2022-08-14T14:35:01.564Z,21.88
2022-08-14T14:40:53.416Z,21.75
2022-08-14T14:45:24.772Z,22.83
2022-08-14T14:50:27.141Z,19.92
2022-08-14T14:55:30.409Z,19.90
2022-08-14T15:00:51.926Z,18.67
2022-08-14T15:05:53.703Z,17.30
2022-08-14T15:10:56.085Z,16.60
2022-08-14T15:15:57.824Z,17.55
2022-08-14T15:20:59.574Z,17.52
2022-08-14T15:26:01.219Z,18.67
2022-08-14T15:31:03.029Z,18.20
2022-08-14T15:36:05.163Z,19.25
2022-08-14T15:41:26.769Z,17.15
2022-08-14T15:46:42.804Z,16.35
2022-08-14T15:51:47.117Z,16.88
2022-08-14T15:56:52.606Z,18.00
2022-08-14T16:01:55.285Z,17.20
2022-08-14T16:06:57.296Z,16.15
2022-08-14T16:11:58.969Z,14.50
2022-08-14T16:17:01.108Z,15.77
2022-08-14T16:23:10.618Z,14.35
2022-08-14T16:27:38.802Z,12.13
2022-08-14T16:32:55.931Z,14.13
2022-08-14T16:37:58.026Z,12.25
2022-08-14T16:43:12.736Z,12.52
2022-08-14T16:48:57.882Z,12.15
2022-08-14T16:53:36.542Z,11.23
2022-08-14T16:58:38.389Z,10.98
2022-08-14T17:03:42.158Z,10.23
2022-08-14T17:08:46.349Z,11.48
2022-08-14T17:14:00.649Z,13.35
2022-08-14T17:19:02.989Z,10.30
2022-08-14T17:24:55.737Z,10.50
2022-08-14T17:29:29.200Z,11.15
2022-08-14T17:34:31.397Z,10.20
2022-08-14T17:39:40.183Z,9.50
2022-08-14T17:44:45.917Z,9.18
2022-08-14T17:49:51.489Z,9.70
2022-08-14T17:54:58.999Z,9.05
2022-08-14T18:00:02.421Z,8.63
2022-08-14T18:05:03.989Z,8.77
2022-08-14T18:10:51.847Z,9.13
2022-08-14T18:15:33.733Z,10.00
2022-08-14T18:21:41.814Z,9.45
2022-08-14T18:26:01.005Z,9.98
2022-08-14T18:31:06.499Z,10.63
2022-08-14T18:36:47.534Z,10.18
2022-08-14T18:41:37.858Z,9.35
2022-08-14T18:47:00.596Z,10.93
2022-08-14T18:52:01.483Z,11.20
2022-08-14T18:57:03.212Z,11.70
2022-08-14T19:02:04.865Z,11.20
2022-08-14T19:07:22.959Z,11.98
2022-08-14T19:12:27.751Z,12.45
2022-08-14T19:17:30.970Z,12.00
2022-08-14T19:22:43.989Z,12.02
2022-08-14T19:27:46.554Z,11.93
2022-08-14T19:32:50.584Z,11.98
2022-08-14T19:37:54.133Z,11.73
2022-08-14T19:42:58.370Z,12.35
2022-08-14T19:48:01.196Z,12.07
2022-08-14T19:53:02.981Z,12.27
2022-08-14T19:58:04.688Z,12.65
2022-08-14T20:03:10.250Z,12.40
2022-08-14T20:11:01.056Z,13.68
2022-08-14T20:13:35.678Z,12.32
2022-08-14T20:18:49.675Z,13.70
2022-08-14T20:23:52.026Z,15.00
2022-08-14T20:28:58.460Z,14.13
2022-08-14T20:34:00.258Z,14.18
2022-08-14T20:39:05.120Z,15.02
2022-08-14T20:44:07.484Z,15.15
2022-08-14T20:49:09.247Z,14.90
2022-08-14T20:54:11.610Z,14.98
2022-08-14T20:59:15.461Z,15.55
2022-08-14T21:04:19.217Z,16.08
2022-08-14T21:09:21.560Z,15.25
2022-08-14T21:14:46.549Z,15.77
2022-08-14T21:19:53.642Z,16.75
2022-08-14T21:25:01.552Z,16.27
2022-08-14T21:30:08.715Z,16.73
2022-08-14T21:35:10.784Z,14.45
2022-08-14T21:40:40.752Z,14.77
2022-08-14T21:45:35.316Z,15.90
2022-08-14T21:50:40.521Z,17.08
2022-08-14T21:55:59.506Z,16.40
2022-08-14T22:01:01.237Z,17.70
2022-08-14T22:06:03.602Z,18.92
2022-08-14T22:11:05.385Z,16.48
2022-08-14T22:16:58.718Z,18.80
2022-08-14T22:21:32.770Z,18.05
2022-08-14T22:26:35.620Z,18.55
2022-08-14T22:31:43.786Z,16.85
2022-08-14T22:36:45.803Z,17.98
2022-08-14T22:41:56.009Z,17.98
2022-08-14T22:46:58.111Z,19.08
2022-08-14T22:51:59.819Z,20.02
2022-08-14T22:57:01.560Z,19.00
2022-08-14T23:02:03.819Z,16.65
2022-08-14T23:07:07.299Z,18.27
2022-08-14T23:12:28.080Z,20.15
2022-08-14T23:17:39.520Z,20.23
2022-08-14T23:22:42.174Z,19.55
2022-08-14T23:28:02.628Z,19.70
2022-08-14T23:33:05.668Z,19.33
2022-08-14T23:38:07.435Z,20.58
2022-08-14T23:43:30.914Z,18.92
2022-08-14T23:48:32.854Z,19.50
2022-08-14T23:53:48.052Z,18.00
2022-08-14T23:58:51.312Z,19.40
